createdAt,value
2022-11-14T00:00:25.279Z,15.03
2022-11-14T00:02:53.027Z,14.57
2022-11-14T00:05:22.434Z,14.70
2022-11-14T00:07:49.976Z,14.47
2022-11-14T00:10:18.573Z,15.53
2022-11-14T00:12:46.778Z,15.73
2022-11-14T00:15:14.997Z,14.90
2022-11-14T00:17:42.685Z,15.88
2022-11-14T00:20:13.134Z,16.80
2022-11-14T00:22:42.036Z,17.73
2022-11-14T00:25:11.733Z,16.83
2022-11-14T00:27:39.285Z,17.83
2022-11-14T00:30:07.918Z,17.07
2022-11-14T00:32:35.476Z,17.23
2022-11-14T00:35:03.073Z,18.70
2022-11-14T00:37:30.636Z,17.53
2022-11-14T00:39:59.559Z,19.17
2022-11-14T00:42:27.341Z,19.10
2022-11-14T00:44:54.914Z,20.10
2022-11-14T00:47:22.671Z,19.63
2022-11-14T00:49:50.268Z,20.27
2022-11-14T00:52:17.820Z,21.37
2022-11-14T00:54:45.424Z,22.13
2022-11-14T00:57:14.311Z,21.80
2022-11-14T00:59:41.963Z,22.57
2022-11-14T01:02:09.564Z,24.20
2022-11-14T01:04:37.062Z,23.80
2022-11-14T01:07:04.642Z,23.23
2022-11-14T01:09:32.267Z,24.60
2022-11-14T01:11:59.916Z,23.23
2022-11-14T01:14:28.829Z,24.33
2022-11-14T01:16:56.361Z,25.17
2022-11-14T01:19:23.876Z,24.73
2022-11-14T01:21:51.404Z,25.20
2022-11-14T01:24:18.973Z,24.07
2022-11-14T01:26:46.542Z,25.33
2022-11-14T01:29:14.116Z,25.57
2022-11-14T01:31:42.999Z,26.93
2022-11-14T01:36:38.223Z,26.40
2022-11-14T01:39:05.948Z,24.57
2022-11-14T01:41:33.467Z,26.03
2022-11-14T01:44:01.273Z,27.57
2022-11-14T01:46:33.340Z,26.97
2022-11-14T01:49:06.173Z,26.50
2022-11-14T01:51:37.469Z,28.57
2022-11-14T01:54:09.380Z,26.23
2022-11-14T01:56:41.861Z,27.97
2022-11-14T01:59:12.346Z,26.73
2022-11-14T02:01:46.579Z,26.87
2022-11-14T02:04:20.537Z,29.97
2022-11-14T02:06:48.883Z,27.67
2022-11-14T02:09:17.066Z,27.95
2022-11-14T02:11:47.049Z,27.15
2022-11-14T02:14:14.661Z,27.93
2022-11-14T02:16:51.777Z,28.57
2022-11-14T02:19:44.080Z,28.17
2022-11-14T02:22:12.985Z,29.10
2022-11-14T02:24:40.563Z,29.57
2022-11-14T02:27:09.501Z,28.10
2022-11-14T02:29:37.156Z,30.13
2022-11-14T02:32:10.359Z,27.87
2022-11-14T02:34:38.505Z,29.13
2022-11-14T02:37:06.242Z,30.37
2022-11-14T02:39:35.147Z,29.83
2022-11-14T02:44:30.088Z,30.20
2022-11-14T02:46:57.652Z,29.77
2022-11-14T02:49:25.238Z,30.77
2022-11-14T02:51:52.796Z,31.87
2022-11-14T02:54:20.353Z,31.07
2022-11-14T02:56:49.334Z,31.47
2022-11-14T02:59:16.907Z,30.23
2022-11-14T03:01:44.547Z,31.00
2022-11-14T03:04:12.190Z,31.40
2022-11-14T03:06:39.819Z,34.17
2022-11-14T03:09:07.414Z,31.30
2022-11-14T03:11:34.995Z,32.43
2022-11-14T03:14:03.931Z,30.40
2022-11-14T03:16:31.651Z,30.60
2022-11-14T03:18:59.226Z,32.23
2022-11-14T03:21:26.763Z,32.60
2022-11-14T03:23:54.368Z,31.63
2022-11-14T03:26:21.962Z,31.07
2022-11-14T03:28:49.535Z,32.77
2022-11-14T03:31:18.463Z,33.43
2022-11-14T03:33:46.047Z,32.97
2022-11-14T03:36:13.634Z,32.20
2022-11-14T03:38:41.249Z,33.67
2022-11-14T03:41:08.793Z,33.97
2022-11-14T03:43:36.400Z,33.23
2022-11-14T03:46:05.012Z,33.27
2022-11-14T03:48:34.010Z,32.20
2022-11-14T03:53:29.221Z,32.03
2022-11-14T03:55:56.827Z,32.30
2022-11-14T03:58:24.464Z,32.83
2022-11-14T04:00:52.100Z,31.57
2022-11-14T04:03:19.735Z,32.27
2022-11-14T04:05:48.764Z,31.27
2022-11-14T04:08:16.365Z,31.93
2022-11-14T04:10:44.017Z,30.17
2022-11-14T04:13:11.604Z,33.00
2022-11-14T04:15:39.161Z,32.00
2022-11-14T04:18:06.766Z,32.13
2022-11-14T04:20:34.661Z,31.90
2022-11-14T04:23:03.546Z,29.58
2022-11-14T04:27:58.550Z,30.10
2022-11-14T04:30:27.849Z,30.90
2022-11-14T04:32:58.442Z,30.33
2022-11-14T04:35:26.004Z,28.10
2022-11-14T04:37:53.553Z,30.90
2022-11-14T04:40:22.503Z,29.60
2022-11-14T04:42:50.122Z,31.07
2022-11-14T04:45:17.889Z,31.37
2022-11-14T04:47:45.565Z,31.63
2022-11-14T04:50:13.255Z,31.13
2022-11-14T04:52:40.837Z,32.80
2022-11-14T04:55:09.127Z,30.07
2022-11-14T04:57:38.033Z,30.20
2022-11-14T05:02:33.675Z,29.17
2022-11-14T05:05:01.241Z,31.23
2022-11-14T05:07:28.820Z,31.33
2022-11-14T05:09:56.472Z,30.93
2022-11-14T05:12:24.036Z,33.20
2022-11-14T05:14:52.960Z,31.40
2022-11-14T05:17:20.643Z,31.03
2022-11-14T05:19:48.274Z,30.83
2022-11-14T05:22:15.848Z,29.83
2022-11-14T05:24:43.404Z,28.83
2022-11-14T05:27:11.035Z,27.50
2022-11-14T05:29:38.626Z,30.03
2022-11-14T05:32:11.151Z,27.13
2022-11-14T05:34:41.202Z,30.00
2022-11-14T05:37:08.795Z,31.13
2022-11-14T05:39:36.351Z,28.77
2022-11-14T05:42:03.940Z,30.30
2022-11-14T05:44:31.498Z,27.30
2022-11-14T05:46:59.106Z,29.47
2022-11-14T05:49:28.066Z,28.00
2022-11-14T05:51:55.685Z,30.90
2022-11-14T05:54:23.260Z,29.73
2022-11-14T05:56:50.838Z,29.20
2022-11-14T05:59:18.421Z,28.13
2022-11-14T06:01:46.083Z,28.87
2022-11-14T06:04:14.744Z,27.77
2022-11-14T06:06:43.726Z,29.02
2022-11-14T06:09:11.352Z,28.87
2022-11-14T06:11:38.917Z,28.53
2022-11-14T06:14:10.538Z,28.53
2022-11-14T06:16:38.756Z,29.03
2022-11-14T06:19:06.332Z,27.70
2022-11-14T06:21:33.891Z,26.63
2022-11-14T06:24:02.804Z,26.53
2022-11-14T06:28:59.915Z,26.13
2022-11-14T06:31:27.839Z,24.90
2022-11-14T06:33:56.675Z,26.55
2022-11-14T06:38:51.775Z,25.60
2022-11-14T06:41:22.160Z,25.63
2022-11-14T06:43:51.246Z,26.13
2022-11-14T06:46:21.666Z,26.00
2022-11-14T06:48:50.820Z,26.27
2022-11-14T06:51:18.785Z,26.50
2022-11-14T06:53:46.808Z,26.80
2022-11-14T06:56:16.291Z,26.08
2022-11-14T06:58:47.077Z,27.27
2022-11-14T07:01:17.189Z,26.87
2022-11-14T07:03:45.660Z,27.00
2022-11-14T07:06:15.583Z,26.25
2022-11-14T07:08:43.559Z,26.90
2022-11-14T07:11:22.508Z,24.80
2022-11-14T07:13:51.832Z,25.47
2022-11-14T07:16:19.708Z,26.97
2022-11-14T07:18:47.539Z,24.67
2022-11-14T07:21:15.236Z,25.70
2022-11-14T07:23:43.578Z,25.27
2022-11-14T07:26:12.566Z,24.50
2022-11-14T07:28:42.085Z,25.20
2022-11-14T07:31:12.895Z,25.87
2022-11-14T07:33:41.214Z,24.47
2022-11-14T07:36:09.722Z,26.60
2022-11-14T07:38:38.741Z,23.67
2022-11-14T07:41:07.997Z,24.80
2022-11-14T07:43:35.689Z,26.20
2022-11-14T07:46:05.376Z,24.60
2022-11-14T07:48:34.841Z,25.00
2022-11-14T07:51:03.099Z,26.23
2022-11-14T07:53:31.063Z,24.38
2022-11-14T07:56:02.901Z,26.40
2022-11-14T07:58:30.831Z,24.80
2022-11-14T08:01:01.964Z,24.77
2022-11-14T08:03:29.762Z,24.30
2022-11-14T08:06:03.319Z,26.20
2022-11-14T08:08:31.256Z,24.87
2022-11-14T08:10:59.072Z,24.30
2022-11-14T08:13:34.162Z,24.17
2022-11-14T08:16:11.978Z,23.70
2022-11-14T08:18:39.723Z,21.75
2022-11-14T08:21:09.235Z,22.90
2022-11-14T08:23:36.896Z,23.23
2022-11-14T08:26:04.540Z,22.53
2022-11-14T08:28:32.572Z,23.70
2022-11-14T08:31:02.142Z,22.70
2022-11-14T08:33:31.243Z,23.43
2022-11-14T08:36:01.748Z,24.30
2022-11-14T08:38:32.843Z,22.97
2022-11-14T08:41:01.364Z,22.57
2022-11-14T08:43:29.036Z,23.20
2022-11-14T08:46:01.577Z,22.53
2022-11-14T08:48:30.362Z,23.30
2022-11-14T08:50:58.374Z,21.88
2022-11-14T08:53:26.030Z,23.00
2022-11-14T08:55:54.933Z,22.80
2022-11-14T09:00:51.849Z,20.47
2022-11-14T09:03:19.586Z,20.50
2022-11-14T09:05:52.782Z,21.17
2022-11-14T09:08:20.546Z,21.37
2022-11-14T09:10:48.228Z,21.33
2022-11-14T09:13:17.287Z,21.57
2022-11-14T09:15:45.333Z,20.60
2022-11-14T09:18:13.553Z,20.63
2022-11-14T09:20:41.213Z,20.30
2022-11-14T09:23:08.985Z,20.70
2022-11-14T09:25:37.178Z,19.37
2022-11-14T09:28:06.798Z,18.10
2022-11-14T09:30:37.299Z,17.90
2022-11-14T09:33:11.392Z,20.47
2022-11-14T09:35:39.603Z,19.03
2022-11-14T09:38:09.303Z,18.97
2022-11-14T09:40:53.205Z,18.87
2022-11-14T09:43:44.162Z,19.77
2022-11-14T09:46:21.328Z,20.50
2022-11-14T09:48:49.547Z,19.80
2022-11-14T09:51:20.766Z,18.42
2022-11-14T09:53:54.324Z,19.30
2022-11-14T09:56:25.655Z,17.80
2022-11-14T09:58:55.544Z,18.63
2022-11-14T10:01:37.612Z,20.03
2022-11-14T10:04:13.296Z,23.13
2022-11-14T10:06:48.934Z,18.53
2022-11-14T10:09:35.730Z,16.63
2022-11-14T10:12:12.250Z,17.17
2022-11-14T10:14:56.500Z,16.00
2022-11-14T10:17:45.432Z,15.17
2022-11-14T10:20:20.836Z,14.90
2022-11-14T10:23:02.785Z,15.77
2022-11-14T10:25:40.859Z,15.57
2022-11-14T10:28:33.454Z,15.13
2022-11-14T10:31:08.320Z,15.50
2022-11-14T10:33:48.329Z,15.67
2022-11-14T10:36:28.066Z,14.70
2022-11-14T10:39:04.616Z,14.53
2022-11-14T10:41:56.184Z,14.27
2022-11-14T10:44:26.471Z,13.75
2022-11-14T10:47:02.137Z,14.80
2022-11-14T10:49:36.049Z,14.40
2022-11-14T10:52:07.951Z,14.07
2022-11-14T10:54:40.663Z,14.87
2022-11-14T10:57:17.098Z,14.10
2022-11-14T10:59:44.699Z,14.87
2022-11-14T11:02:12.876Z,13.33
2022-11-14T11:04:43.355Z,14.48
2022-11-14T11:07:52.162Z,13.37
2022-11-14T11:10:41.941Z,13.40
2022-11-14T11:13:14.226Z,14.40
2022-11-14T11:15:43.606Z,14.17
2022-11-14T11:18:27.826Z,13.73
2022-11-14T11:21:06.785Z,14.47
2022-11-14T11:23:35.060Z,14.87
2022-11-14T11:26:05.752Z,15.00
2022-11-14T11:28:35.018Z,16.63
2022-11-14T11:31:04.769Z,20.03
2022-11-14T11:33:34.197Z,20.40
2022-11-14T11:36:06.217Z,16.90
2022-11-14T11:38:34.788Z,16.90
2022-11-14T11:43:57.483Z,17.30
2022-11-14T11:46:33.377Z,17.17
2022-11-14T11:49:08.261Z,15.73
2022-11-14T11:51:44.480Z,17.13
2022-11-14T11:54:17.587Z,17.77
2022-11-14T11:56:49.871Z,15.60
2022-11-14T11:59:25.211Z,15.43
2022-11-14T12:01:53.428Z,15.20
2022-11-14T12:04:21.322Z,15.45
2022-11-14T12:07:05.466Z,15.57
2022-11-14T12:10:08.659Z,14.20
2022-11-14T12:12:39.980Z,14.53
2022-11-14T12:15:18.765Z,14.23
2022-11-14T12:18:05.040Z,14.97
2022-11-14T12:20:51.443Z,15.67
2022-11-14T12:23:49.711Z,14.23
2022-11-14T12:26:41.466Z,14.55
2022-11-14T12:29:25.393Z,15.20
2022-11-14T12:31:59.847Z,14.10
2022-11-14T12:34:32.515Z,13.80
2022-11-14T12:37:00.931Z,14.00
2022-11-14T12:39:32.858Z,14.82
2022-11-14T12:42:04.995Z,15.47
2022-11-14T12:44:36.086Z,14.60
2022-11-14T12:47:15.791Z,15.20
2022-11-14T12:50:26.305Z,15.23
2022-11-14T12:52:54.797Z,15.10
2022-11-14T12:55:57.948Z,16.65
2022-11-14T12:58:44.346Z,15.50
2022-11-14T13:01:48.177Z,15.90
2022-11-14T13:04:29.448Z,15.00
2022-11-14T13:07:14.863Z,14.90
2022-11-14T13:09:59.337Z,16.17
2022-11-14T13:12:47.587Z,16.27
2022-11-14T13:15:49.402Z,15.90
2022-11-14T13:18:41.741Z,15.77
2022-11-14T13:21:45.171Z,18.47
2022-11-14T13:24:16.066Z,21.37
2022-11-14T13:26:53.317Z,23.10
2022-11-14T13:29:58.687Z,25.17
2022-11-14T13:33:07.657Z,24.73
2022-11-14T13:35:45.476Z,26.17
2022-11-14T13:38:31.305Z,28.70
2022-11-14T13:41:12.954Z,27.33
2022-11-14T13:43:56.715Z,28.37
2022-11-14T13:46:37.208Z,28.00
2022-11-14T13:49:21.627Z,25.80
2022-11-14T13:51:53.787Z,27.47
2022-11-14T13:54:21.875Z,26.73
2022-11-14T13:56:58.213Z,25.75
2022-11-14T13:59:49.288Z,27.03
2022-11-14T14:02:45.985Z,28.63
2022-11-14T14:05:22.387Z,25.43
2022-11-14T14:08:04.811Z,25.00
2022-11-14T14:10:42.303Z,24.50
2022-11-14T14:13:31.832Z,23.43
2022-11-14T14:16:07.228Z,24.93
2022-11-14T14:18:46.184Z,24.43
2022-11-14T14:21:25.559Z,24.57
2022-11-14T14:24:03.373Z,23.10
2022-11-14T14:26:41.868Z,24.20
2022-11-14T14:29:23.093Z,25.02
2022-11-14T14:31:51.725Z,24.03
2022-11-14T14:34:24.268Z,24.40
2022-11-14T14:36:53.504Z,23.40
2022-11-14T14:39:25.164Z,23.57
2022-11-14T14:41:54.887Z,23.23
2022-11-14T14:44:27.870Z,25.23
2022-11-14T14:46:55.742Z,24.00
2022-11-14T14:49:26.349Z,25.48
2022-11-14T14:51:58.244Z,25.07
2022-11-14T14:54:29.617Z,26.10
2022-11-14T14:57:01.069Z,25.80
2022-11-14T14:59:30.965Z,26.47
2022-11-14T15:01:59.543Z,26.83
2022-11-14T15:04:29.289Z,25.85
2022-11-14T15:06:58.302Z,26.60
2022-11-14T15:09:29.639Z,29.20
2022-11-14T15:11:59.973Z,28.20
2022-11-14T15:14:31.078Z,27.93
2022-11-14T15:17:00.048Z,27.67
2022-11-14T15:19:35.723Z,27.73
2022-11-14T15:22:05.190Z,27.37
2022-11-14T15:24:34.144Z,28.00
2022-11-14T15:27:05.337Z,28.37
2022-11-14T15:29:33.939Z,28.33
2022-11-14T15:32:03.550Z,29.10
2022-11-14T15:34:33.535Z,27.33
2022-11-14T15:37:23.738Z,27.67
2022-11-14T15:39:52.896Z,28.93
2022-11-14T15:42:22.143Z,30.80
2022-11-14T15:44:49.980Z,29.23
2022-11-14T15:47:23.484Z,30.10
2022-11-14T15:49:59.406Z,30.37
2022-11-14T15:52:32.898Z,27.43
2022-11-14T15:55:02.275Z,28.67
2022-11-14T15:57:32.500Z,30.13
2022-11-14T16:00:00.130Z,29.03
2022-11-14T16:02:31.586Z,29.63
2022-11-14T16:05:02.013Z,30.43
2022-11-14T16:07:29.663Z,29.47
2022-11-14T16:09:57.252Z,28.27
2022-11-14T16:12:26.192Z,29.13
2022-11-14T16:14:53.700Z,28.70
2022-11-14T16:17:21.314Z,29.03
2022-11-14T16:19:48.843Z,28.27
2022-11-14T16:22:18.654Z,28.83
2022-11-14T16:24:46.291Z,28.30
2022-11-14T16:27:14.284Z,30.03
2022-11-14T16:29:43.145Z,29.02
2022-11-14T16:34:38.837Z,27.90
2022-11-14T16:37:06.458Z,28.80
2022-11-14T16:39:34.090Z,29.10
2022-11-14T16:42:03.133Z,28.53
2022-11-14T16:44:34.586Z,28.40
2022-11-14T16:47:07.868Z,29.50
2022-11-14T16:49:35.461Z,28.87
2022-11-14T16:52:06.999Z,28.33
2022-11-14T16:54:34.594Z,31.10
2022-11-14T16:57:02.200Z,30.63
2022-11-14T16:59:29.784Z,31.20
2022-11-14T17:01:57.511Z,32.13
2022-11-14T17:04:26.659Z,34.17
2022-11-14T17:06:54.319Z,30.37
2022-11-14T17:09:21.945Z,31.13
2022-11-14T17:11:49.549Z,34.40
2022-11-14T17:14:17.080Z,33.33
2022-11-14T17:16:44.639Z,32.70
2022-11-14T17:19:12.227Z,31.87
2022-11-14T17:21:41.180Z,32.57
2022-11-14T17:24:08.875Z,32.70
2022-11-14T17:26:36.719Z,31.80
2022-11-14T17:29:04.667Z,32.47
2022-11-14T17:31:37.458Z,34.15
2022-11-14T17:34:05.853Z,30.73
2022-11-14T17:36:33.414Z,32.90
2022-11-14T17:39:02.448Z,34.90
2022-11-14T17:41:30.083Z,31.87
2022-11-14T17:44:01.834Z,29.63
2022-11-14T17:46:29.773Z,32.47
2022-11-14T17:48:57.342Z,31.23
2022-11-14T17:51:25.532Z,32.23
2022-11-14T17:53:53.202Z,32.22
2022-11-14T17:56:24.198Z,33.60
2022-11-14T17:58:53.468Z,32.70
2022-11-14T18:01:23.424Z,32.60
2022-11-14T18:03:51.540Z,32.30
2022-11-14T18:06:20.948Z,31.02
2022-11-14T18:08:49.422Z,31.53
2022-11-14T18:11:19.793Z,32.22
2022-11-14T18:13:48.755Z,31.43
2022-11-14T18:16:18.513Z,32.93
2022-11-14T18:18:46.565Z,30.73
2022-11-14T18:21:16.463Z,31.85
2022-11-14T18:23:44.392Z,29.83
2022-11-14T18:26:12.438Z,30.45
2022-11-14T18:28:40.478Z,28.75
2022-11-14T18:31:10.961Z,33.90
2022-11-14T18:33:38.999Z,31.23
2022-11-14T18:36:09.606Z,30.48
2022-11-14T18:38:37.429Z,30.53
2022-11-14T18:41:09.381Z,29.37
2022-11-14T18:43:37.387Z,30.03
2022-11-14T18:46:06.787Z,30.88
2022-11-14T18:48:36.312Z,31.60
2022-11-14T18:51:05.301Z,33.07
2022-11-14T18:53:33.551Z,30.17
2022-11-14T18:56:04.656Z,29.27
2022-11-14T18:58:32.406Z,28.07
2022-11-14T19:01:00.270Z,26.87
2022-11-14T19:03:28.830Z,26.95
2022-11-14T19:06:02.924Z,28.38
2022-11-14T19:08:30.533Z,25.97
2022-11-14T19:11:01.614Z,27.63
2022-11-14T19:13:29.619Z,28.37
2022-11-14T19:16:02.234Z,28.40
2022-11-14T19:18:31.154Z,27.70
2022-11-14T19:21:02.094Z,26.67
2022-11-14T19:23:30.350Z,26.40
2022-11-14T19:26:02.558Z,28.55
2022-11-14T19:28:30.259Z,28.60
2022-11-14T19:31:02.035Z,25.93
2022-11-14T19:33:29.904Z,27.27
2022-11-14T19:35:57.819Z,27.38
2022-11-14T19:38:26.762Z,27.27
2022-11-14T19:40:54.347Z,25.33
2022-11-14T19:43:22.557Z,24.20
2022-11-14T19:45:50.127Z,24.30
2022-11-14T19:48:17.964Z,25.93
2022-11-14T19:50:45.503Z,24.37
2022-11-14T19:53:13.082Z,22.63
2022-11-14T19:55:42.036Z,23.23
2022-11-14T19:58:09.620Z,23.07
2022-11-14T20:00:37.785Z,22.50
2022-11-14T20:03:05.399Z,24.10
2022-11-14T20:05:33.305Z,23.83
2022-11-14T20:08:00.909Z,22.90
2022-11-14T20:10:28.460Z,22.80
2022-11-14T20:12:57.474Z,21.40
2022-11-14T20:15:26.060Z,22.20
2022-11-14T20:17:53.675Z,21.17
2022-11-14T20:20:21.277Z,21.63
2022-11-14T20:22:48.917Z,21.00
2022-11-14T20:25:16.953Z,21.47
2022-11-14T20:27:44.522Z,19.75
2022-11-14T20:30:14.077Z,18.87
2022-11-14T20:32:41.682Z,20.37
2022-11-14T20:35:09.548Z,18.97
2022-11-14T20:37:37.160Z,19.23
2022-11-14T20:40:05.316Z,18.47
2022-11-14T20:42:32.938Z,19.08
2022-11-14T20:45:00.594Z,19.53
2022-11-14T20:47:30.861Z,19.63
2022-11-14T20:49:58.529Z,19.13
2022-11-14T20:52:26.085Z,19.40
2022-11-14T20:54:53.816Z,18.90
2022-11-14T20:57:21.364Z,21.00
2022-11-14T20:59:48.958Z,21.23
2022-11-14T21:02:16.665Z,21.47
2022-11-14T21:04:45.679Z,22.33
2022-11-14T21:07:13.301Z,22.83
2022-11-14T21:09:40.889Z,24.60
2022-11-14T21:12:08.614Z,22.97
2022-11-14T21:14:36.277Z,22.93
2022-11-14T21:17:04.813Z,23.27
2022-11-14T21:19:33.638Z,25.48
2022-11-14T21:24:33.555Z,23.87
2022-11-14T21:27:09.434Z,24.03
2022-11-14T21:29:38.722Z,25.17
2022-11-14T21:32:07.314Z,24.37
2022-11-14T21:34:35.739Z,25.23
2022-11-14T21:37:05.654Z,26.63
2022-11-14T21:39:34.348Z,24.60
2022-11-14T21:42:02.593Z,27.65
2022-11-14T21:44:30.678Z,25.05
2022-11-14T21:46:58.851Z,24.58
2022-11-14T21:49:27.262Z,24.25
2022-11-14T21:51:55.398Z,24.33
2022-11-14T21:54:24.577Z,24.05
2022-11-14T21:56:52.221Z,25.27
2022-11-14T21:59:23.734Z,24.37
2022-11-14T22:02:10.314Z,24.03
2022-11-14T22:04:38.733Z,25.83
2022-11-14T22:07:09.937Z,22.77
2022-11-14T22:09:45.103Z,23.67
2022-11-14T22:12:13.939Z,24.70
2022-11-14T22:14:41.558Z,22.98
2022-11-14T22:17:09.151Z,24.13
2022-11-14T22:19:36.751Z,23.87
2022-11-14T22:22:04.379Z,23.73
2022-11-14T22:24:31.944Z,23.57
2022-11-14T22:27:00.848Z,25.10
2022-11-14T22:29:28.412Z,23.23
2022-11-14T22:31:56.811Z,24.23
2022-11-14T22:34:24.547Z,25.98
2022-11-14T22:36:52.113Z,24.77
2022-11-14T22:39:19.758Z,23.87
2022-11-14T22:41:47.794Z,24.50
2022-11-14T22:44:16.758Z,23.95
2022-11-14T22:46:44.342Z,24.37
2022-11-14T22:49:11.954Z,25.00
2022-11-14T22:51:39.530Z,24.63
2022-11-14T22:54:07.128Z,25.27
2022-11-14T22:56:34.786Z,27.17
2022-11-14T22:59:02.615Z,27.30
2022-11-14T23:01:33.529Z,25.13
2022-11-14T23:04:03.615Z,25.93
2022-11-14T23:06:33.107Z,26.23
2022-11-14T23:09:01.822Z,26.80
2022-11-14T23:11:31.509Z,26.67
2022-11-14T23:14:00.498Z,28.20
2022-11-14T23:16:30.221Z,26.83
2022-11-14T23:19:01.225Z,27.87
2022-11-14T23:21:30.371Z,26.33
2022-11-14T23:23:59.848Z,27.30
2022-11-14T23:26:29.412Z,26.90
2022-11-14T23:28:57.226Z,28.33
2022-11-14T23:31:25.930Z,26.90
2022-11-14T23:33:55.472Z,26.15
2022-11-14T23:36:24.421Z,27.27
2022-11-14T23:38:53.680Z,27.00
2022-11-14T23:41:24.631Z,26.87
2022-11-14T23:43:52.446Z,26.40
2022-11-14T23:46:20.204Z,28.77
2022-11-14T23:48:47.889Z,26.63
2022-11-14T23:51:15.436Z,25.73
2022-11-14T23:53:44.377Z,26.43
2022-11-14T23:56:13.943Z,27.47
2022-11-14T23:58:41.789Z,27.50
